Time;durP1;ratioP1;P1;durP2;ratioP2;P2;SDS_P1;SDS_P2;PMS_P1;PMS_P2;Temp;Humidity;BMP_temperature;BMP_pressure;BME280_temperature;BME280_humidity;BME280_pressure;Samples;Min_cycle;Max_cycle;Signal;HPM_P1;HPM_P2
2023/12/03 00:02:28;;;;;;;18.05;9.73;;;2.40;99.50;;;;;;6270398;22;20008;-69
2023/12/03 00:05:14;;;;;;;18.00;9.40;;;2.40;99.50;;;;;;6269964;22;20364;-66
2023/12/03 00:08:01;;;;;;;16.58;9.98;;;2.40;99.60;;;;;;6269529;22;20057;-66
2023/12/03 00:10:47;;;;;;;18.17;10.57;;;2.40;99.60;;;;;;6268685;22;20414;-66
2023/12/03 00:13:33;;;;;;;15.82;9.50;;;2.40;99.50;;;;;;6267504;22;20061;-66
2023/12/03 00:16:19;;;;;;;19.38;9.82;;;2.40;99.50;;;;;;6269664;22;20012;-69
2023/12/03 00:19:05;;;;;;;17.67;9.70;;;2.40;99.50;;;;;;6268111;22;20020;-69
2023/12/03 00:21:51;;;;;;;19.17;10.73;;;2.40;99.40;;;;;;6268892;22;20014;-69
2023/12/03 00:24:37;;;;;;;18.30;9.43;;;2.30;99.30;;;;;;6268038;22;20494;-69
2023/12/03 00:27:23;;;;;;;18.27;9.40;;;2.30;99.40;;;;;;6266458;22;20019;-68
2023/12/03 00:30:09;;;;;;;17.23;9.75;;;2.20;99.30;;;;;;6269178;22;20189;-68
2023/12/03 00:32:55;;;;;;;16.15;9.23;;;2.20;99.30;;;;;;6270152;22;20007;-65
2023/12/03 00:35:41;;;;;;;16.33;8.70;;;2.20;99.30;;;;;;6269978;22;20501;-65
2023/12/03 00:38:27;;;;;;;16.38;9.18;;;2.10;99.30;;;;;;6265992;22;20110;-65
2023/12/03 00:41:13;;;;;;;15.77;8.73;;;2.10;99.30;;;;;;6268824;22;20019;-65
2023/12/03 00:43:59;;;;;;;16.88;9.07;;;2.10;99.30;;;;;;6269652;22;20008;-65
2023/12/03 00:46:46;;;;;;;18.88;9.80;;;2.10;99.30;;;;;;6270396;22;20018;-68
2023/12/03 00:49:32;;;;;;;16.25;10.32;;;2.00;99.30;;;;;;6268709;22;20014;-68
2023/12/03 00:52:17;;;;;;;16.30;9.00;;;2.00;99.40;;;;;;6246088;22;20482;-69
2023/12/03 00:55:04;;;;;;;15.23;8.90;;;2.00;99.40;;;;;;6268552;22;20471;-69
2023/12/03 00:57:49;;;;;;;15.75;7.93;;;2.10;99.40;;;;;;6270235;22;20008;-69
2023/12/03 01:00:35;;;;;;;15.95;8.73;;;2.00;99.40;;;;;;6272086;22;20418;-70
2023/12/03 01:03:22;;;;;;;15.63;8.95;;;2.00;99.40;;;;;;6270615;22;20236;-70
2023/12/03 01:06:08;;;;;;;14.27;7.97;;;2.00;99.30;;;;;;6271124;22;20448;-68
2023/12/03 01:08:54;;;;;;;13.52;9.80;;;2.00;99.30;;;;;;6270206;22;20493;-67
2023/12/03 01:11:41;;;;;;;14.18;7.85;;;2.00;99.30;;;;;;6271494;22;20122;-69
2023/12/03 01:14:27;;;;;;;14.02;8.05;;;1.90;99.20;;;;;;6270770;22;20016;-66
2023/12/03 01:17:13;;;;;;;13.85;7.85;;;2.00;99.30;;;;;;6271378;22;20367;-66
2023/12/03 01:19:59;;;;;;;12.60;6.57;;;1.90;99.20;;;;;;6270793;22;20046;-66
2023/12/03 01:22:44;;;;;;;12.60;7.13;;;1.90;99.20;;;;;;6270147;22;20014;-66
2023/12/03 01:25:30;;;;;;;13.68;6.93;;;1.80;99.30;;;;;;6271904;22;20008;-66
2023/12/03 01:28:20;;;;;;;13.07;6.30;;;1.80;99.20;;;;;;6271491;22;20016;-65
2023/12/03 01:31:06;;;;;;;12.18;6.65;;;1.70;99.00;;;;;;6249593;22;20018;-65
2023/12/03 01:33:52;;;;;;;10.57;6.20;;;1.70;99.10;;;;;;6270484;22;20375;-64
2023/12/03 01:36:38;;;;;;;13.60;6.43;;;1.60;98.90;;;;;;6271477;22;20366;-64
2023/12/03 01:39:24;;;;;;;12.70;6.80;;;1.60;99.00;;;;;;6271107;22;20439;-64
2023/12/03 01:42:10;;;;;;;10.10;6.00;;;1.50;99.00;;;;;;6270747;22;20011;-66
2023/12/03 01:44:56;;;;;;;10.07;5.95;;;1.50;98.90;;;;;;6269797;22;20370;-67
2023/12/03 01:47:42;;;;;;;13.45;6.97;;;1.50;98.80;;;;;;6270333;22;20344;-67
2023/12/03 01:50:28;;;;;;;8.85;5.13;;;1.50;98.80;;;;;;6271050;22;20008;-66
2023/12/03 01:53:18;;;;;;;12.90;5.82;;;1.40;98.80;;;;;;6247055;22;20389;-66
2023/12/03 01:56:05;;;;;;;11.70;6.15;;;1.40;98.90;;;;;;6270005;22;20130;-66
2023/12/03 01:58:51;;;;;;;9.82;6.20;;;1.40;98.80;;;;;;6269644;22;20004;-64
2023/12/03 02:01:37;;;;;;;7.55;5.20;;;1.40;98.80;;;;;;6270992;22;20008;-64
2023/12/03 02:04:23;;;;;;;8.77;5.65;;;1.40;98.90;;;;;;6270388;22;20482;-65
2023/12/03 02:07:09;;;;;;;11.00;5.95;;;1.50;98.90;;;;;;6269622;22;20094;-64
2023/12/03 02:09:56;;;;;;;12.55;6.10;;;1.40;98.80;;;;;;6270940;22;20087;-64
2023/12/03 02:12:42;;;;;;;9.73;5.75;;;1.40;98.80;;;;;;6271073;22;20008;-65
2023/12/03 02:15:28;;;;;;;10.48;6.30;;;1.40;98.80;;;;;;6270396;22;20020;-66
2023/12/03 02:18:14;;;;;;;8.68;5.32;;;1.40;98.70;;;;;;6269810;22;20525;-66
2023/12/03 02:21:00;;;;;;;9.15;5.35;;;1.40;98.80;;;;;;6269170;22;20004;-66
2023/12/03 02:23:47;;;;;;;10.10;6.68;;;1.40;98.80;;;;;;6249810;22;20061;-66
2023/12/03 02:26:33;;;;;;;9.00;5.47;;;1.40;98.80;;;;;;6271190;22;20004;-65
2023/12/03 02:29:19;;;;;;;8.57;4.95;;;1.50;98.80;;;;;;6271086;22;20429;-65
2023/12/03 02:32:05;;;;;;;8.63;4.93;;;1.50;98.80;;;;;;6268728;22;20372;-65
2023/12/03 02:34:51;;;;;;;8.10;5.20;;;1.60;98.80;;;;;;6249339;22;20162;-65
2023/12/03 02:37:37;;;;;;;7.40;4.80;;;1.60;98.80;;;;;;6248304;22;20007;-66
2023/12/03 02:40:23;;;;;;;8.18;4.80;;;1.70;98.80;;;;;;6269745;22;20018;-68
2023/12/03 02:43:09;;;;;;;9.90;5.10;;;1.70;98.70;;;;;;6269981;22;20129;-67
2023/12/03 02:45:55;;;;;;;11.05;5.43;;;1.70;98.70;;;;;;6247857;22;20042;-68
2023/12/03 02:48:40;;;;;;;8.80;5.38;;;1.80;98.70;;;;;;6270918;22;20011;-67
2023/12/03 02:51:26;;;;;;;9.63;4.72;;;1.80;98.70;;;;;;6269156;22;20096;-67
2023/12/03 02:54:12;;;;;;;7.22;4.72;;;1.90;98.60;;;;;;6270377;22;20007;-68
2023/12/03 02:56:58;;;;;;;7.13;4.15;;;1.90;98.60;;;;;;6269986;22;20367;-69
2023/12/03 02:59:44;;;;;;;7.07;4.88;;;2.00;98.60;;;;;;6271171;22;20417;-68
2023/12/03 03:02:32;;;;;;;8.00;5.88;;;2.00;98.60;;;;;;6270003;22;20035;-68
2023/12/03 03:05:18;;;;;;;8.93;5.35;;;2.00;98.60;;;;;;6270968;22;20471;-69
2023/12/03 03:08:04;;;;;;;9.73;5.13;;;2.00;98.60;;;;;;6269353;22;20464;-68
2023/12/03 03:10:50;;;;;;;10.27;5.78;;;2.10;98.60;;;;;;6271936;22;20004;-69
2023/12/03 03:13:36;;;;;;;10.15;5.68;;;2.10;98.60;;;;;;6270067;22;20066;-68
2023/12/03 03:16:25;;;;;;;9.57;5.63;;;2.10;98.60;;;;;;6269110;22;20043;-68
2023/12/03 03:19:11;;;;;;;10.85;6.80;;;2.10;98.60;;;;;;6270281;22;20004;-69
2023/12/03 03:21:57;;;;;;;9.32;5.32;;;2.10;98.60;;;;;;6270153;22;20012;-69
2023/12/03 03:24:43;;;;;;;10.65;6.15;;;2.10;98.50;;;;;;6271579;22;20007;-66
2023/12/03 03:27:29;;;;;;;7.43;4.93;;;2.20;98.50;;;;;;6270681;22;20007;-66
2023/12/03 03:30:15;;;;;;;10.68;5.85;;;2.20;98.50;;;;;;6248526;22;20008;-66
2023/12/03 03:33:01;;;;;;;10.10;5.72;;;2.20;98.40;;;;;;6268590;22;20016;-66
2023/12/03 03:35:46;;;;;;;10.20;5.15;;;2.20;98.40;;;;;;6268890;22;20104;-66
2023/12/03 03:38:32;;;;;;;11.60;6.80;;;2.20;98.40;;;;;;6271095;22;20008;-66
2023/12/03 03:41:18;;;;;;;9.05;5.53;;;2.20;98.40;;;;;;6269267;22;20012;-66
2023/12/03 03:44:04;;;;;;;8.77;5.20;;;2.20;98.40;;;;;;6269613;22;20031;-66
2023/12/03 03:46:51;;;;;;;9.68;5.32;;;2.20;98.40;;;;;;6271016;22;20007;-66
2023/12/03 03:49:36;;;;;;;8.93;5.32;;;2.30;98.40;;;;;;6248606;22;20007;-67
2023/12/03 03:52:22;;;;;;;9.90;6.82;;;2.30;98.40;;;;;;6270679;22;20091;-69
2023/12/03 03:55:08;;;;;;;10.77;6.10;;;2.30;98.40;;;;;;6267082;22;20022;-69
2023/12/03 03:57:54;;;;;;;10.15;6.05;;;2.30;98.40;;;;;;6268800;22;20011;-68
2023/12/03 04:00:40;;;;;;;10.90;7.10;;;2.30;98.40;;;;;;6268706;22;20035;-68
2023/12/03 04:03:26;;;;;;;11.07;6.15;;;2.40;98.50;;;;;;6246176;22;20050;-66
2023/12/03 04:06:12;;;;;;;9.52;6.57;;;2.40;98.50;;;;;;6269102;22;20019;-66
2023/12/03 04:08:58;;;;;;;12.60;7.70;;;2.40;98.50;;;;;;6269010;22;20004;-66
2023/12/03 04:11:45;;;;;;;12.10;7.10;;;2.40;98.50;;;;;;6269259;22;20046;-65
2023/12/03 04:14:31;;;;;;;12.38;8.10;;;2.40;98.50;;;;;;6268818;22;20037;-65
2023/12/03 04:17:17;;;;;;;12.57;8.32;;;2.40;98.60;;;;;;6270066;22;20307;-66
2023/12/03 04:20:04;;;;;;;12.02;7.38;;;2.40;98.60;;;;;;6270162;22;20004;-66
2023/12/03 04:22:50;;;;;;;12.55;7.45;;;2.40;98.70;;;;;;6268561;22;20004;-66
2023/12/03 04:25:36;;;;;;;10.43;6.70;;;2.40;98.70;;;;;;6267427;22;20074;-66
2023/12/03 04:28:22;;;;;;;13.50;7.82;;;2.50;98.70;;;;;;6266745;22;20015;-65
2023/12/03 04:31:25;;;;;;;10.80;7.07;;;2.40;98.70;;;;;;6268019;22;20013;-66
2023/12/03 04:34:12;;;;;;;14.35;8.68;;;2.40;98.70;;;;;;6244899;22;20046;-68
2023/12/03 04:36:58;;;;;;;12.45;8.18;;;2.50;98.70;;;;;;6247783;22;20016;-68
2023/12/03 04:39:44;;;;;;;11.88;7.32;;;2.50;98.80;;;;;;6269956;22;20413;-68
2023/12/03 04:42:30;;;;;;;11.10;7.45;;;2.50;98.80;;;;;;6268722;22;20012;-68
2023/12/03 04:45:16;;;;;;;13.20;7.95;;;2.50;98.80;;;;;;6268526;22;20031;-68
2023/12/03 04:48:02;;;;;;;16.48;8.63;;;2.50;98.80;;;;;;6268594;22;20018;-69
2023/12/03 04:50:48;;;;;;;12.32;7.95;;;2.50;98.90;;;;;;6249391;22;20344;-68
2023/12/03 04:53:34;;;;;;;15.00;8.07;;;2.50;98.90;;;;;;6270204;22;20367;-68
2023/12/03 04:56:20;;;;;;;15.43;8.30;;;2.50;98.90;;;;;;6269633;22;20019;-68
2023/12/03 04:59:06;;;;;;;16.20;9.35;;;2.60;98.90;;;;;;6268740;22;20019;-71
2023/12/03 05:01:52;;;;;;;15.48;8.82;;;2.60;98.90;;;;;;6245534;22;20402;-70
2023/12/03 05:04:38;;;;;;;13.32;8.35;;;2.50;98.90;;;;;;6267984;22;20094;-70
2023/12/03 05:07:24;;;;;;;12.82;7.57;;;2.60;98.90;;;;;;6245940;22;20015;-70
2023/12/03 05:10:10;;;;;;;13.23;7.88;;;2.60;98.90;;;;;;6269072;22;20015;-69
2023/12/03 05:12:56;;;;;;;15.48;9.45;;;2.50;98.90;;;;;;6270514;22;20486;-69
2023/12/03 05:15:42;;;;;;;14.43;9.07;;;2.50;98.90;;;;;;6267314;22;20151;-69
2023/12/03 05:18:28;;;;;;;17.13;9.65;;;2.60;99.00;;;;;;6270554;22;20015;-69
2023/12/03 05:21:14;;;;;;;15.07;9.80;;;2.60;99.10;;;;;;6267724;22;20050;-69
2023/12/03 05:24:00;;;;;;;14.35;9.77;;;2.60;99.10;;;;;;6267994;22;20012;-69
2023/12/03 05:26:46;;;;;;;16.02;9.07;;;2.50;99.10;;;;;;6266300;22;20007;-68
2023/12/03 05:29:32;;;;;;;12.70;8.48;;;2.60;99.20;;;;;;6270506;22;20470;-69
2023/12/03 05:32:18;;;;;;;14.40;9.80;;;2.50;99.10;;;;;;6270174;22;20008;-69
2023/12/03 05:35:04;;;;;;;14.93;9.27;;;2.50;99.20;;;;;;6268447;22;20035;-69
2023/12/03 05:37:50;;;;;;;14.60;9.10;;;2.50;99.30;;;;;;6267498;22;20004;-69
2023/12/03 05:40:36;;;;;;;13.40;9.27;;;2.50;99.30;;;;;;6268716;22;20012;-69
2023/12/03 05:43:22;;;;;;;16.38;10.13;;;2.60;99.30;;;;;;6267067;22;20008;-68
2023/12/03 05:46:08;;;;;;;16.25;10.10;;;2.60;99.30;;;;;;6272511;22;20355;-68
2023/12/03 05:48:54;;;;;;;17.08;9.75;;;2.50;99.30;;;;;;6249952;22;20013;-68
2023/12/03 05:51:44;;;;;;;14.68;10.15;;;2.50;99.40;;;;;;6270240;22;20007;-68
2023/12/03 05:54:30;;;;;;;14.63;9.40;;;2.60;99.40;;;;;;6270515;22;20464;-68
2023/12/03 05:57:15;;;;;;;15.13;8.57;;;2.50;99.30;;;;;;6270986;22;20027;-68
2023/12/03 06:00:02;;;;;;;14.93;9.13;;;2.60;99.30;;;;;;6246379;22;20011;-68
2023/12/03 06:02:48;;;;;;;13.68;9.20;;;2.50;99.30;;;;;;6247577;22;20090;-68
2023/12/03 06:05:34;;;;;;;15.57;9.82;;;2.50;99.30;;;;;;6271023;22;20035;-68
2023/12/03 06:08:20;;;;;;;14.40;9.05;;;2.50;99.30;;;;;;6271018;22;20011;-67
2023/12/03 06:11:06;;;;;;;16.17;9.93;;;2.50;99.40;;;;;;6270616;22;20086;-67
2023/12/03 06:13:54;;;;;;;16.52;10.10;;;2.50;99.30;;;;;;6270609;22;20011;-68
2023/12/03 06:16:40;;;;;;;17.33;9.88;;;2.40;99.30;;;;;;6269027;22;20016;-67
2023/12/03 06:19:26;;;;;;;17.02;9.73;;;2.40;99.40;;;;;;6268783;22;20039;-67
2023/12/03 06:22:11;;;;;;;16.05;10.73;;;2.30;99.40;;;;;;6269133;22;20359;-67
2023/12/03 06:24:57;;;;;;;16.25;9.52;;;2.30;99.30;;;;;;6248669;22;20019;-67
2023/12/03 06:27:43;;;;;;;17.33;10.50;;;2.30;99.30;;;;;;6270826;22;20478;-67
2023/12/03 06:30:30;;;;;;;15.98;10.20;;;2.20;99.30;;;;;;6271824;22;20012;-68
2023/12/03 06:33:18;;;;;;;19.00;10.98;;;2.20;99.30;;;;;;6269108;22;20026;-67
2023/12/03 06:36:04;;;;;;;17.25;10.60;;;2.10;99.30;;;;;;6245822;22;20495;-68
2023/12/03 06:38:50;;;;;;;15.10;9.88;;;2.20;99.30;;;;;;6270073;22;20003;-68
2023/12/03 06:41:37;;;;;;;14.65;9.25;;;2.20;99.30;;;;;;6271006;22;20008;-68
2023/12/03 06:44:23;;;;;;;15.65;9.60;;;2.20;99.30;;;;;;6270758;22;20538;-69
2023/12/03 06:47:08;;;;;;;17.55;9.88;;;2.20;99.40;;;;;;6270218;22;20362;-68
2023/12/03 06:49:54;;;;;;;18.08;9.82;;;2.20;99.40;;;;;;6269478;22;20027;-68
2023/12/03 06:52:40;;;;;;;17.17;10.55;;;2.10;99.40;;;;;;6267618;22;20007;-69
2023/12/03 06:55:27;;;;;;;16.67;10.35;;;2.10;99.40;;;;;;6269903;22;20082;-68
2023/12/03 06:58:13;;;;;;;16.77;10.45;;;2.20;99.60;;;;;;6270236;22;20344;-68
2023/12/03 07:00:59;;;;;;;15.90;9.98;;;2.20;99.40;;;;;;6269066;22;20026;-69
2023/12/03 07:03:45;;;;;;;16.20;9.18;;;2.10;99.40;;;;;;6270473;22;20018;-69
2023/12/03 07:06:31;;;;;;;17.60;10.60;;;2.20;99.30;;;;;;6269128;22;20020;-69
2023/12/03 07:09:17;;;;;;;15.35;9.63;;;2.20;99.30;;;;;;6270612;22;20143;-68
2023/12/03 07:12:04;;;;;;;17.63;10.75;;;2.20;99.40;;;;;;6270102;22;20015;-67
2023/12/03 07:14:49;;;;;;;16.30;10.23;;;2.20;99.30;;;;;;6269593;22;20016;-67
2023/12/03 07:17:36;;;;;;;15.57;9.20;;;2.30;99.30;;;;;;6270563;22;20011;-67
2023/12/03 07:20:23;;;;;;;17.10;10.07;;;2.20;99.30;;;;;;6269696;22;20015;-67
2023/12/03 07:23:09;;;;;;;16.70;9.95;;;2.20;99.20;;;;;;6271318;22;20046;-67
2023/12/03 07:25:55;;;;;;;17.55;10.20;;;2.20;99.20;;;;;;6267348;22;20011;-67
2023/12/03 07:28:41;;;;;;;18.50;9.15;;;2.20;99.20;;;;;;6269708;22;20418;-67
2023/12/03 07:31:27;;;;;;;18.98;10.38;;;2.10;99.20;;;;;;6269571;22;20011;-67
2023/12/03 07:34:13;;;;;;;18.88;11.23;;;2.10;99.20;;;;;;6271292;22;20559;-67
2023/12/03 07:36:59;;;;;;;18.27;10.52;;;2.10;99.10;;;;;;6269240;22;20098;-67
2023/12/03 07:39:45;;;;;;;21.50;12.10;;;2.10;99.10;;;;;;6270522;22;20373;-67
2023/12/03 07:42:31;;;;;;;16.83;10.10;;;2.10;99.20;;;;;;6270210;22;20008;-68
2023/12/03 07:45:17;;;;;;;19.42;10.70;;;2.10;99.20;;;;;;6269600;22;20035;-68
2023/12/03 07:48:03;;;;;;;15.82;9.55;;;2.00;99.10;;;;;;6271335;22;20371;-67
2023/12/03 07:50:49;;;;;;;16.92;9.63;;;2.00;99.20;;;;;;6266899;22;20073;-68
2023/12/03 07:53:35;;;;;;;16.90;10.02;;;2.10;99.20;;;;;;6265752;22;20012;-68
2023/12/03 07:56:20;;;;;;;15.35;9.60;;;2.00;99.20;;;;;;6269717;22;20533;-65
2023/12/03 07:59:07;;;;;;;20.85;10.90;;;2.10;99.20;;;;;;6246607;22;20098;-66
2023/12/03 08:01:54;;;;;;;18.95;11.85;;;2.10;99.20;;;;;;6270260;22;20054;-67
2023/12/03 08:04:40;;;;;;;16.42;9.98;;;2.10;99.30;;;;;;6267216;22;20023;-67
2023/12/03 08:07:26;;;;;;;17.52;10.60;;;2.10;99.20;;;;;;6266569;22;20122;-66
2023/12/03 08:10:12;;;;;;;16.95;10.70;;;2.10;99.20;;;;;;6269378;22;20414;-70
2023/12/03 08:12:58;;;;;;;17.92;10.38;;;2.20;99.20;;;;;;6270032;22;20007;-71
2023/12/03 08:15:44;;;;;;;18.00;9.85;;;2.20;99.10;;;;;;6244894;22;20178;-71
2023/12/03 08:18:31;;;;;;;15.95;10.57;;;2.10;99.10;;;;;;6269063;22;20083;-71
2023/12/03 08:21:17;;;;;;;13.93;8.57;;;2.20;99.10;;;;;;6245973;22;20099;-71
2023/12/03 08:24:03;;;;;;;15.63;9.13;;;2.10;99.10;;;;;;6267168;22;20477;-71
2023/12/03 08:26:49;;;;;;;13.40;8.68;;;2.10;99.10;;;;;;6264796;22;20011;-71
2023/12/03 08:29:35;;;;;;;13.60;8.70;;;2.10;99.10;;;;;;6267804;22;20019;-67
2023/12/03 08:32:21;;;;;;;16.83;9.90;;;2.10;98.90;;;;;;6268783;22;20073;-70
2023/12/03 08:35:07;;;;;;;13.23;8.02;;;2.10;98.80;;;;;;6246596;22;20020;-70
2023/12/03 08:37:53;;;;;;;15.40;8.70;;;2.10;98.80;;;;;;6268657;22;20440;-70
2023/12/03 08:40:39;;;;;;;15.20;9.15;;;2.10;98.80;;;;;;6268672;22;20011;-69
2023/12/03 08:43:25;;;;;;;14.38;8.70;;;2.10;98.80;;;;;;6263638;22;20485;-70
2023/12/03 08:46:11;;;;;;;16.02;9.65;;;2.10;98.90;;;;;;6245434;22;20018;-69
2023/12/03 08:48:57;;;;;;;16.05;9.10;;;2.20;99.10;;;;;;6268936;22;20404;-67
2023/12/03 08:51:43;;;;;;;13.55;9.05;;;2.20;99.10;;;;;;6268438;22;20043;-68
2023/12/03 08:54:31;;;;;;;15.88;9.25;;;2.20;99.10;;;;;;6243563;22;20026;-69
2023/12/03 08:57:17;;;;;;;18.40;11.13;;;2.30;99.10;;;;;;6266572;22;20427;-69
2023/12/03 09:00:08;;;;;;;18.08;10.00;;;2.20;99.10;;;;;;6247073;22;20012;-70
2023/12/03 09:02:54;;;;;;;16.13;9.52;;;2.30;99.00;;;;;;6268535;22;20427;-70
2023/12/03 09:05:39;;;;;;;15.80;8.80;;;2.40;99.10;;;;;;6269050;22;20430;-66
2023/12/03 09:08:25;;;;;;;16.58;8.98;;;2.40;99.10;;;;;;6268017;22;20541;-67
2023/12/03 09:11:11;;;;;;;14.85;9.35;;;2.40;99.00;;;;;;6245476;22;20004;-67
2023/12/03 09:13:57;;;;;;;13.70;8.52;;;2.40;99.10;;;;;;6246708;22;20016;-66
2023/12/03 09:16:43;;;;;;;14.07;8.63;;;2.40;99.10;;;;;;6269608;22;20015;-66
2023/12/03 09:19:30;;;;;;;13.38;8.40;;;2.40;99.10;;;;;;6271230;22;20022;-66
2023/12/03 09:22:16;;;;;;;15.30;8.95;;;2.40;99.20;;;;;;6270739;22;20003;-67
2023/12/03 09:25:02;;;;;;;13.93;10.07;;;2.40;99.10;;;;;;6270435;22;20047;-67
2023/12/03 09:27:48;;;;;;;15.15;9.15;;;2.40;99.20;;;;;;6249031;22;20026;-67
2023/12/03 09:30:34;;;;;;;13.07;8.20;;;2.50;99.20;;;;;;6270802;22;20463;-67
2023/12/03 09:33:20;;;;;;;13.07;8.40;;;2.60;99.10;;;;;;6271571;22;20026;-67
2023/12/03 09:36:07;;;;;;;14.70;8.85;;;2.60;99.00;;;;;;6271781;22;20035;-71
2023/12/03 09:38:53;;;;;;;16.63;9.65;;;2.60;99.00;;;;;;6272379;22;20015;-70
2023/12/03 09:41:47;;;;;;;14.95;8.50;;;2.60;99.00;;;;;;6267611;22;20097;-71
2023/12/03 09:44:46;;;;;;;14.55;9.45;;;2.70;99.10;;;;;;6266638;22;20008;-72
2023/12/03 09:47:37;;;;;;;14.45;9.35;;;2.60;98.70;;;;;;6246710;22;20008;-71
2023/12/03 09:50:23;;;;;;;17.30;9.75;;;2.50;98.60;;;;;;6269195;22;20004;-71
2023/12/03 09:53:11;;;;;;;13.35;9.60;;;2.40;98.70;;;;;;6269338;22;20003;-72
2023/12/03 09:55:57;;;;;;;15.88;9.77;;;2.50;98.80;;;;;;6247489;22;20378;-71
2023/12/03 09:58:45;;;;;;;14.35;9.35;;;2.60;98.80;;;;;;6269712;22;20014;-71
2023/12/03 10:01:36;;;;;;;14.93;9.27;;;2.60;98.80;;;;;;6271175;22;20012;-71
2023/12/03 10:04:22;;;;;;;14.48;9.57;;;2.70;98.70;;;;;;6271507;22;20027;-68
2023/12/03 10:07:09;;;;;;;14.05;9.65;;;2.70;98.70;;;;;;6270037;22;20003;-68
2023/12/03 10:09:59;;;;;;;17.42;10.18;;;2.80;98.80;;;;;;6270808;22;20007;-67
2023/12/03 10:12:46;;;;;;;16.13;9.85;;;2.80;98.70;;;;;;6268963;22;20352;-69
2023/12/03 10:15:32;;;;;;;15.57;10.20;;;2.80;98.70;;;;;;6264524;22;20019;-71
2023/12/03 10:18:19;;;;;;;17.52;9.55;;;2.80;98.60;;;;;;6244385;22;20087;-68
2023/12/03 10:21:08;;;;;;;14.40;8.90;;;2.80;98.60;;;;;;6269608;22;20012;-68
2023/12/03 10:23:58;;;;;;;11.93;7.93;;;2.90;98.80;;;;;;6269151;22;20071;-70
2023/12/03 10:26:52;;;;;;;12.27;7.85;;;3.00;98.70;;;;;;6246491;22;20043;-69
2023/12/03 10:29:38;;;;;;;15.43;10.30;;;3.00;98.60;;;;;;6269920;22;20011;-70
2023/12/03 10:32:24;;;;;;;15.68;9.85;;;3.00;98.50;;;;;;6270224;22;20008;-68
2023/12/03 10:35:10;;;;;;;12.77;8.18;;;2.90;98.50;;;;;;6269801;22;20020;-66
2023/12/03 10:37:56;;;;;;;12.88;7.30;;;3.00;98.50;;;;;;6270413;22;20011;-66
2023/12/03 10:40:42;;;;;;;11.93;7.75;;;3.00;98.50;;;;;;6270291;22;20012;-69
2023/12/03 10:43:28;;;;;;;15.00;9.38;;;3.00;98.40;;;;;;6268705;22;20421;-68
2023/12/03 10:46:14;;;;;;;16.35;9.73;;;3.10;98.40;;;;;;6270210;22;20087;-68
2023/12/03 10:49:00;;;;;;;14.00;9.82;;;3.10;98.30;;;;;;6249365;22;20015;-68
2023/12/03 10:51:47;;;;;;;14.40;8.18;;;3.10;98.30;;;;;;6247188;22;20016;-67
2023/12/03 10:54:33;;;;;;;11.50;7.40;;;3.00;98.30;;;;;;6269159;22;20019;-71
2023/12/03 10:57:19;;;;;;;14.63;9.27;;;3.10;98.40;;;;;;6271268;22;20011;-66
2023/12/03 11:00:10;;;;;;;12.48;7.95;;;3.10;98.30;;;;;;6266695;22;20019;-72
2023/12/03 11:03:18;;;;;;;11.23;7.40;;;3.10;98.20;;;;;;6269090;22;20066;-72
2023/12/03 11:06:08;;;;;;;11.85;8.18;;;3.20;98.20;;;;;;6267173;22;20087;-72
2023/12/03 11:08:55;;;;;;;11.50;7.70;;;3.20;98.20;;;;;;6268550;22;20015;-71
2023/12/03 11:11:41;;;;;;;13.40;8.45;;;3.20;98.20;;;;;;6268645;22;20044;-71
2023/12/03 11:14:28;;;;;;;11.98;7.60;;;3.20;98.20;;;;;;6266365;22;20030;-72
2023/12/03 11:17:40;;;;;;;12.90;8.50;;;3.30;98.20;;;;;;6268204;22;20023;-72
2023/12/03 11:20:30;;;;;;;11.00;7.70;;;3.30;98.10;;;;;;6269140;22;20018;-71
2023/12/03 11:23:39;;;;;;;12.07;7.88;;;3.30;98.10;;;;;;6266744;22;20581;-73
2023/12/03 11:26:26;;;;;;;11.63;7.53;;;3.40;98.00;;;;;;6269525;22;20065;-71
2023/12/03 11:29:12;;;;;;;14.50;8.15;;;3.40;97.90;;;;;;6270329;22;20003;-69
2023/12/03 11:31:59;;;;;;;12.57;7.85;;;3.40;97.90;;;;;;6267798;22;20008;-69
2023/12/03 11:34:58;;;;;;;12.02;7.72;;;3.40;97.80;;;;;;6269315;22;20030;-69
2023/12/03 11:37:46;;;;;;;10.60;7.07;;;3.40;97.80;;;;;;6269367;22;20034;-68
2023/12/03 11:40:33;;;;;;;14.35;8.63;;;3.50;97.80;;;;;;6268968;22;20086;-69
2023/12/03 11:43:28;;;;;;;13.32;8.18;;;3.40;97.60;;;;;;6269024;22;20043;-69
2023/12/03 11:46:13;;;;;;;13.77;8.25;;;3.40;97.60;;;;;;6270703;22;20418;-68
2023/12/03 11:48:59;;;;;;;11.55;7.97;;;3.50;97.70;;;;;;6269764;22;20355;-68
2023/12/03 11:51:49;;;;;;;10.73;6.72;;;3.50;97.60;;;;;;6263831;22;20092;-70
2023/12/03 11:54:43;;;;;;;11.13;7.22;;;3.50;97.50;;;;;;6267933;22;20015;-69
2023/12/03 11:57:32;;;;;;;10.05;7.07;;;3.60;97.50;;;;;;6247430;22;20367;-69
2023/12/03 12:00:19;;;;;;;14.15;7.53;;;3.60;97.50;;;;;;6268309;22;20451;-71
2023/12/03 12:03:06;;;;;;;11.57;7.78;;;3.50;97.50;;;;;;6267310;22;20011;-69
2023/12/03 14:29:58;;;;;;;15.50;8.20;;;2.40;97.10;;;;;;6289399;22;20386;-71
2023/12/03 14:32:44;;;;;;;12.60;7.30;;;2.40;97.10;;;;;;6299883;22;20027;-71
2023/12/03 14:35:30;;;;;;;13.00;7.53;;;2.40;97.10;;;;;;6279389;22;20019;-71
2023/12/03 14:38:16;;;;;;;13.20;6.60;;;2.40;97.10;;;;;;6299967;22;20026;-71
2023/12/03 14:41:05;;;;;;;13.10;8.23;;;2.40;97.10;;;;;;6299082;22;20019;-71
2023/12/03 14:43:51;;;;;;;14.07;8.00;;;2.50;97.10;;;;;;6300481;22;20064;-71
2023/12/03 14:46:37;;;;;;;11.82;7.50;;;2.50;97.10;;;;;;6279808;22;20008;-72
2023/12/03 14:49:23;;;;;;;14.80;8.13;;;2.50;97.10;;;;;;6300039;22;20007;-71
2023/12/03 14:52:09;;;;;;;12.73;7.63;;;2.50;97.10;;;;;;6299430;22;20093;-70
2023/12/03 14:54:55;;;;;;;13.95;8.38;;;2.50;97.00;;;;;;6300310;22;20079;-71
2023/12/03 14:57:41;;;;;;;14.13;8.80;;;2.50;97.20;;;;;;6300512;22;20007;-70
2023/12/03 15:00:28;;;;;;;11.35;7.32;;;2.40;97.00;;;;;;6301069;22;20019;-71
2023/12/03 15:03:14;;;;;;;13.45;8.10;;;2.50;97.00;;;;;;6298320;22;20082;-71
2023/12/03 15:06:00;;;;;;;13.77;8.07;;;2.50;97.00;;;;;;6300842;22;20374;-71
2023/12/03 15:08:46;;;;;;;14.50;7.85;;;2.60;97.00;;;;;;6298376;22;20370;-71
2023/12/03 15:11:32;;;;;;;14.02;7.68;;;2.60;97.00;;;;;;6278635;22;20073;-71
2023/12/03 15:14:18;;;;;;;11.60;7.00;;;2.50;96.90;;;;;;6300018;22;20008;-71
2023/12/03 15:17:04;;;;;;;10.75;7.13;;;2.50;96.90;;;;;;6301741;22;20420;-71
2023/12/03 15:19:50;;;;;;;11.52;6.45;;;2.60;96.90;;;;;;6298821;22;20007;-71
2023/12/03 15:22:36;;;;;;;11.20;6.28;;;2.50;96.90;;;;;;6299600;22;20037;-71
2023/12/03 15:25:22;;;;;;;11.10;6.22;;;2.50;96.80;;;;;;6279099;22;20022;-72
2023/12/03 15:28:08;;;;;;;13.05;6.85;;;2.50;96.80;;;;;;6300448;22;20358;-67
2023/12/03 15:30:54;;;;;;;14.25;8.32;;;2.50;96.80;;;;;;6300647;22;20493;-69
2023/12/03 15:33:40;;;;;;;11.55;6.97;;;2.40;96.70;;;;;;6301101;22;19999;-67
2023/12/03 15:36:26;;;;;;;10.30;6.57;;;2.40;96.80;;;;;;6279190;22;20489;-68
2023/12/03 15:39:12;;;;;;;11.32;7.07;;;2.30;96.70;;;;;;6277016;22;20357;-69
2023/12/03 15:41:58;;;;;;;12.85;8.52;;;2.30;96.70;;;;;;6278714;22;20007;-70
2023/12/03 15:44:44;;;;;;;11.45;6.10;;;2.30;96.70;;;;;;6278923;22;20003;-69
2023/12/03 15:47:30;;;;;;;9.95;6.18;;;2.20;96.70;;;;;;6300327;22;20031;-70
2023/12/03 15:50:20;;;;;;;14.48;8.45;;;2.20;96.70;;;;;;6278753;22;20042;-70
2023/12/03 15:53:06;;;;;;;12.23;6.82;;;2.20;96.70;;;;;;6279077;22;20034;-70
2023/12/03 15:55:54;;;;;;;11.73;7.43;;;2.20;96.80;;;;;;6297982;22;20441;-69
2023/12/03 15:58:40;;;;;;;11.05;7.10;;;2.10;96.80;;;;;;6299769;22;20358;-66
2023/12/03 16:01:26;;;;;;;13.05;9.07;;;2.10;96.80;;;;;;6301259;22;20049;-66
2023/12/03 16:04:12;;;;;;;15.50;10.30;;;2.10;96.90;;;;;;6300293;22;20011;-67
2023/12/03 16:06:58;;;;;;;14.48;9.10;;;2.10;96.90;;;;;;6301809;22;20011;-71
2023/12/03 16:09:44;;;;;;;16.27;10.27;;;2.10;96.90;;;;;;6299101;22;20347;-72
2023/12/03 16:12:30;;;;;;;11.10;7.40;;;2.20;96.90;;;;;;6300632;22;20118;-67
2023/12/03 16:15:16;;;;;;;12.88;7.65;;;2.10;96.80;;;;;;6297164;22;20084;-69
2023/12/03 16:18:02;;;;;;;12.82;8.52;;;2.20;96.90;;;;;;6298709;22;20082;-70
2023/12/03 16:20:48;;;;;;;12.85;7.90;;;2.10;96.80;;;;;;6299872;22;20095;-71
2023/12/03 16:23:34;;;;;;;12.10;8.07;;;2.10;96.80;;;;;;6300889;22;20018;-70
2023/12/03 16:26:21;;;;;;;15.65;8.23;;;2.10;96.80;;;;;;6299911;22;20035;-76
2023/12/03 16:29:07;;;;;;;15.90;8.93;;;2.10;96.90;;;;;;6280931;22;20003;-72
2023/12/03 16:31:56;;;;;;;11.55;6.43;;;2.20;96.90;;;;;;6300930;22;20470;-68
2023/12/03 16:34:45;;;;;;;11.90;7.75;;;2.20;96.90;;;;;;6299700;22;20072;-72
2023/12/03 16:37:32;;;;;;;14.13;8.15;;;2.20;96.90;;;;;;6278298;22;20088;-72
2023/12/03 16:40:22;;;;;;;14.50;8.25;;;2.20;97.00;;;;;;6300812;22;20007;-71
2023/12/03 16:43:08;;;;;;;14.63;8.55;;;2.20;97.00;;;;;;6277290;22;20019;-69
2023/12/03 16:45:54;;;;;;;12.88;7.53;;;2.20;97.00;;;;;;6279713;22;20014;-70
2023/12/03 16:48:40;;;;;;;14.27;9.18;;;2.20;97.00;;;;;;6299178;22;20015;-70
2023/12/03 16:51:26;;;;;;;14.27;8.55;;;2.20;97.10;;;;;;6300480;22;20076;-70